Time;durP1;ratioP1;P1;durP2;ratioP2;P2;SDS_P1;SDS_P2;PMS_P1;PMS_P2;Temp;Humidity;BMP_temperature;BMP_pressure;BME280_temperature;BME280_humidity;BME280_pressure;Samples;Min_cycle;Max_cycle;Signal;HPM_P1;HPM_P2
2022/05/28 00:00:09;;;;;;;3.45;2.20;;;;;;;7.66;68.70;99908.67;3442604;80;21012;-79
2022/05/28 00:05:00;;;;;;;5.37;2.05;;;;;;;7.60;68.64;99902.55;3447833;80;20927;-79
2022/05/28 00:09:51;;;;;;;3.77;1.80;;;;;;;7.59;68.85;99899.51;3461171;80;20911;-79
2022/05/28 00:14:42;;;;;;;2.00;1.65;;;;;;;7.60;69.03;99896.09;3476156;80;20905;-79
2022/05/28 00:19:33;;;;;;;3.17;1.80;;;;;;;7.60;69.12;99890.91;3471770;80;20926;-79
2022/05/28 00:24:24;;;;;;;4.03;1.55;;;;;;;7.70;69.24;99900.97;3439853;80;21591;-79
2022/05/28 00:29:15;;;;;;;3.50;1.37;;;;;;;7.74;69.08;99909.65;3468359;80;21555;-79
2022/05/28 00:34:06;;;;;;;4.03;1.57;;;;;;;7.75;69.20;99913.56;3507979;80;20999;-79
2022/05/28 00:38:57;;;;;;;5.92;1.50;;;;;;;7.83;69.02;99913.67;3468600;80;28921;-79
2022/05/28 00:43:48;;;;;;;4.12;1.52;;;;;;;7.93;68.97;99911.67;3433206;80;21613;-79
2022/05/28 00:48:45;;;;;;;1.35;1.05;;;;;;;7.99;68.80;99900.53;3440752;80;24803;-79
2022/05/28 00:53:36;;;;;;;;;;;;;;;8.06;68.64;99902.79;3480385;80;20892;-79
2022/05/28 00:58:29;;;;;;;3.87;1.32;;;;;;;8.14;68.49;99903.78;3466888;80;26747;-79
2022/05/28 01:03:52;;;;;;;4.62;1.95;;;;;;;8.18;68.33;99905.12;3471472;80;20973;-79
2022/05/28 01:08:58;;;;;;;4.00;1.52;;;;;;;8.23;68.23;99897.83;3506418;80;20968;-79
2022/05/28 01:14:02;;;;;;;2.55;1.50;;;;;;;8.27;68.14;99885.39;3448452;80;21091;-79
2022/05/28 01:19:02;;;;;;;3.22;0.95;;;;;;;8.30;68.14;99890.59;3472800;80;20948;-79
2022/05/28 01:24:01;;;;;;;2.30;0.90;;;;;;;8.26;67.99;99887.09;3479730;80;21502;-79
2022/05/28 01:29:00;;;;;;;1.55;1.30;;;;;;;8.24;68.02;99886.20;3471283;80;20982;-79
2022/05/28 01:33:54;;;;;;;2.45;1.60;;;;;;;8.23;68.19;99876.71;3500229;80;20921;-79
2022/05/28 01:38:47;;;;;;;3.45;1.12;;;;;;;8.17;68.48;99880.50;3481878;80;21426;-79
2022/05/28 01:43:44;;;;;;;3.87;1.10;;;;;;;8.08;68.48;99885.13;3474243;80;21171;-80
2022/05/28 01:48:37;;;;;;;4.97;1.65;;;;;;;8.01;68.59;99884.19;3455731;80;22820;-79
2022/05/28 01:58:40;;;;;;;2.20;1.20;;;;;;;7.90;69.17;99865.03;3463788;80;20924;-79
2022/05/28 02:03:35;;;;;;;2.80;1.25;;;;;;;7.84;69.40;99864.95;3430703;80;20901;-79
2022/05/28 02:08:31;;;;;;;2.85;1.22;;;;;;;7.72;69.13;99871.23;3473642;80;20952;-80
2022/05/28 02:13:36;;;;;;;3.50;1.42;;;;;;;7.62;69.54;99864.64;3480444;80;21118;-79
2022/05/28 02:18:39;;;;;;;2.83;1.40;;;;;;;7.58;69.81;99864.16;3498784;80;20983;-79
2022/05/28 02:23:57;;;;;;;1.32;1.22;;;;;;;7.56;69.78;99874.02;3491099;80;20873;-79
2022/05/28 02:28:48;;;;;;;1.35;1.07;;;;;;;7.53;69.88;99873.56;3282440;85;21040;-79
2022/05/28 02:33:40;;;;;;;2.50;1.22;;;;;;;7.54;70.13;99863.64;3236511;84;21490;-79
2022/05/28 02:38:31;;;;;;;3.92;1.05;;;;;;;7.59;70.23;99856.83;3278043;84;21422;-80
2022/05/28 02:43:23;;;;;;;2.60;1.00;;;;;;;7.63;70.36;99854.72;3283874;84;22339;-79
2022/05/28 02:48:14;;;;;;;2.30;1.12;;;;;;;7.68;69.99;99851.35;3231020;85;20962;-79
2022/05/28 02:53:07;;;;;;;1.70;1.25;;;;;;;7.70;70.37;99846.63;3255311;84;20992;-79
2022/05/28 02:57:58;;;;;;;1.87;1.47;;;;;;;7.71;70.41;99850.08;3196770;85;21847;-79
2022/05/28 03:02:49;;;;;;;2.87;1.35;;;;;;;7.72;70.59;99853.98;3432955;80;21137;-79
2022/05/28 03:07:41;;;;;;;2.02;1.02;;;;;;;7.72;70.75;99844.94;3458813;80;21035;-80
2022/05/28 03:12:32;;;;;;;3.77;1.20;;;;;;;7.79;70.81;99840.72;3457744;79;20928;-79
2022/05/28 03:17:23;;;;;;;3.62;1.15;;;;;;;7.94;71.12;99847.82;3473091;80;20925;-79
2022/05/28 03:22:13;;;;;;;2.27;0.98;;;;;;;8.14;71.08;99842.94;3461225;80;21047;-80
2022/05/28 03:27:05;;;;;;;4.12;1.00;;;;;;;8.52;70.54;99849.89;3472720;80;21475;-80
2022/05/28 03:31:56;;;;;;;1.52;1.20;;;;;;;8.54;70.59;99847.32;3484838;79;21387;-79
2022/05/28 03:36:47;;;;;;;2.75;1.05;;;;;;;8.55;70.65;99845.19;3452213;80;21695;-79
2022/05/28 03:41:38;;;;;;;2.35;1.22;;;;;;;8.59;70.32;99839.17;3482642;80;20886;-79
2022/05/28 03:46:35;;;;;;;1.67;1.22;;;;;;;8.65;70.22;99847.00;3441370;80;21441;-80
2022/05/28 03:51:26;;;;;;;2.98;1.20;;;;;;;8.72;70.20;99841.03;3440275;80;21770;-80
2022/05/28 03:56:20;;;;;;;3.45;1.52;;;;;;;8.82;69.90;99832.94;3426386;80;21518;-80
2022/05/28 04:01:11;;;;;;;4.50;1.30;;;;;;;8.93;69.85;99838.23;3435002;80;20959;-80
2022/05/28 04:06:03;;;;;;;3.12;1.95;;;;;;;9.03;70.04;99832.28;3473035;80;20971;-80
2022/05/28 04:10:55;;;;;;;2.70;1.02;;;;;;;9.09;69.86;99839.25;3502149;80;20995;-80
2022/05/28 04:15:49;;;;;;;1.60;1.20;;;;;;;9.17;69.75;99831.09;3495973;80;21925;-80
2022/05/28 04:20:40;;;;;;;2.62;1.15;;;;;;;9.25;69.58;99832.47;3454055;80;20947;-80
2022/05/28 04:25:31;;;;;;;4.47;1.20;;;;;;;9.30;69.41;99835.53;3482918;80;20923;-79
2022/05/28 04:30:22;;;;;;;2.92;0.95;;;;;;;9.28;69.29;99840.25;3447014;80;20941;-80
2022/05/28 04:35:13;;;;;;;8.00;1.60;;;;;;;9.27;69.30;99837.23;3435858;81;21031;-80
2022/05/28 04:40:06;;;;;;;5.50;1.90;;;;;;;9.26;69.79;99841.97;3439286;80;21036;-80
2022/05/28 04:44:57;;;;;;;8.60;3.25;;;;;;;9.15;71.15;99841.44;3431559;80;20984;-80
2022/05/28 04:49:48;;;;;;;2.67;1.35;;;;;;;9.15;71.15;99841.44;3450763;80;21027;-80
2022/05/28 04:54:38;;;;;;;2.17;1.12;;;;;;;9.24;70.66;99840.66;3502686;80;21006;-80
2022/05/28 04:59:29;;;;;;;3.72;2.22;;;;;;;9.34;70.73;99833.83;3450219;80;20944;-80
2022/05/28 05:04:20;;;;;;;3.45;1.20;;;;;;;9.50;70.29;99831.78;3485805;80;20944;-80
2022/05/28 05:09:11;;;;;;;4.05;1.37;;;;;;;9.61;70.09;99836.19;3435469;80;21454;-80
2022/05/28 05:14:02;;;;;;;8.48;2.47;;;;;;;9.72;70.23;99838.42;3456639;80;21521;-79
2022/05/28 05:18:53;;;;;;;3.50;1.40;;;;;;;9.82;69.51;99845.41;3471484;80;21001;-80
2022/05/28 05:23:44;;;;;;;1.05;0.90;;;;;;;9.88;69.07;99838.94;3457621;80;20995;-80
2022/05/28 05:28:35;;;;;;;1.90;1.22;;;;;;;9.87;68.87;99837.63;3420632;80;20992;-80
2022/05/28 05:33:26;;;;;;;4.78;1.30;;;;;;;9.93;68.70;99838.55;3419681;80;20911;-80
2022/05/28 05:38:17;;;;;;;2.62;1.27;;;;;;;10.11;68.26;99827.38;3465056;80;20964;-80
2022/05/28 05:43:08;;;;;;;2.83;1.32;;;;;;;10.24;67.96;99834.79;3405478;80;21443;-80
2022/05/28 05:47:59;;;;;;;3.72;2.02;;;;;;;10.44;67.87;99833.59;3473050;80;20892;-80
2022/05/28 05:52:50;;;;;;;4.83;1.70;;;;;;;10.73;67.25;99837.14;3449528;80;21209;-80
2022/05/28 05:57:41;;;;;;;2.55;1.32;;;;;;;10.90;66.53;99837.20;3501932;80;21006;-80
2022/05/28 06:02:33;;;;;;;3.27;1.95;;;;;;;10.95;66.33;99824.63;3443980;80;21001;-80
2022/05/28 06:07:25;;;;;;;2.67;1.55;;;;;;;10.99;66.34;99830.26;3456482;80;20963;-79
2022/05/28 06:12:16;;;;;;;3.58;1.82;;;;;;;10.98;65.87;99829.84;3412145;80;20967;-80
2022/05/28 06:17:07;;;;;;;2.58;1.65;;;;;;;11.36;64.95;99830.28;3491467;80;21077;-80
2022/05/28 06:22:00;;;;;;;4.12;1.65;;;;;;;11.55;64.69;99830.25;3451801;80;21497;-79
2022/05/28 06:26:51;;;;;;;5.90;1.62;;;;;;;11.54;63.57;99820.73;3469298;80;20929;-79
2022/05/28 06:31:42;;;;;;;9.55;1.85;;;;;;;11.32;64.25;99825.95;3464505;80;20929;-79
2022/05/28 06:36:33;;;;;;;2.10;1.82;;;;;;;11.38;63.70;99830.28;3464293;80;20989;-80
2022/05/28 06:41:24;;;;;;;2.20;1.57;;;;;;;12.47;61.43;99815.68;3487110;80;20915;-80
2022/05/28 06:46:14;;;;;;;2.12;1.80;;;;;;;12.67;61.25;99809.48;3429975;80;21627;-80
2022/05/28 06:51:07;;;;;;;3.15;2.00;;;;;;;12.70;59.93;99816.00;3426986;80;21024;-80
2022/05/28 06:55:58;;;;;;;1.70;1.50;;;;;;;13.01;58.42;99805.34;3487777;80;21030;-80
2022/05/28 07:00:49;;;;;;;3.30;1.65;;;;;;;13.15;58.22;99807.41;3483098;80;20951;-80
2022/05/28 07:05:41;;;;;;;2.22;1.42;;;;;;;13.30;57.78;99805.10;3474587;80;20988;-80
2022/05/28 07:10:32;;;;;;;3.00;1.22;;;;;;;13.69;55.54;99806.50;3459263;80;21437;-80
2022/05/28 07:15:24;;;;;;;2.40;1.35;;;;;;;14.62;55.10;99809.34;3422219;80;20908;-78
2022/05/28 07:20:16;;;;;;;1.40;1.10;;;;;;;15.06;53.65;99807.82;3462132;80;20984;-79
2022/05/28 07:25:10;;;;;;;2.98;0.90;;;;;;;14.13;54.00;99801.67;3495281;80;20923;-79
2022/05/28 07:30:01;;;;;;;1.32;1.22;;;;;;;13.25;54.56;99822.12;3487737;79;21245;-81
2022/05/28 07:34:52;;;;;;;1.65;1.00;;;;;;;17.49;48.79;99784.84;3449052;80;21077;-80
2022/05/28 07:39:44;;;;;;;2.40;1.20;;;;;;;20.91;41.36;99787.66;3469699;80;21029;-78
2022/05/28 07:44:35;;;;;;;1.55;0.90;;;;;;;24.31;37.18;99770.73;3459863;80;21403;-79
2022/05/28 07:49:26;;;;;;;1.32;0.85;;;;;;;22.01;41.31;99775.93;3498497;80;20929;-79
2022/05/28 07:54:17;;;;;;;2.55;0.88;;;;;;;20.45;40.56;99788.12;3431516;80;21781;-78
2022/05/28 07:59:09;;;;;;;4.62;1.35;;;;;;;17.56;42.82;99794.28;3483996;80;21079;-79
2022/05/28 08:04:00;;;;;;;2.20;1.32;;;;;;;15.57;47.06;99831.38;3407487;80;21572;-79
2022/05/28 08:08:51;;;;;;;5.72;1.95;;;;;;;15.02;49.49;99820.52;3487710;80;21683;-79
2022/05/28 08:13:42;;;;;;;3.10;1.27;;;;;;;15.76;51.04;99808.83;3480899;79;20940;-79
2022/05/28 08:18:36;;;;;;;1.75;1.30;;;;;;;19.25;46.70;99792.41;3482827;80;20970;-79
2022/05/28 08:23:26;;;;;;;1.87;1.10;;;;;;;21.74;42.65;99791.26;3449744;79;21098;-79
2022/05/28 08:28:20;;;;;;;1.95;1.30;;;;;;;22.85;40.31;99791.48;3504683;80;21152;-79
2022/05/28 08:33:15;;;;;;;3.35;1.70;;;;;;;23.48;38.39;99780.40;3496724;80;21293;-79
2022/05/28 08:38:10;;;;;;;2.55;1.30;;;;;;;20.01;41.15;99802.52;3479112;80;20936;-78
2022/05/28 08:43:02;;;;;;;2.40;1.50;;;;;;;17.87;43.63;99806.66;3495864;80;21135;-80
2022/05/28 08:47:55;;;;;;;2.25;1.17;;;;;;;22.27;40.26;99792.46;3493133;80;21023;-79
2022/05/28 08:52:57;;;;;;;3.58;1.32;;;;;;;24.53;36.92;99794.81;3458232;80;20967;-79
2022/05/28 08:58:03;;;;;;;2.27;1.10;;;;;;;21.31;38.02;99778.06;3497223;80;21528;-78
2022/05/28 09:03:03;;;;;;;1.20;1.00;;;;;;;18.87;41.68;99795.84;3466108;80;21011;-79
2022/05/28 09:08:02;;;;;;;2.85;1.15;;;;;;;18.99;41.19;99792.81;3481710;80;22792;-80
2022/05/28 09:13:29;;;;;;;2.58;1.35;;;;;;;19.79;40.09;99780.87;3515069;80;20963;-79
2022/05/28 09:18:22;;;;;;;1.77;1.05;;;;;;;21.41;37.43;99780.31;3476241;80;36058;-79
2022/05/28 09:23:13;;;;;;;4.15;1.20;;;;;;;21.26;38.35;99780.04;3531610;80;20913;-79
2022/05/28 09:28:21;;;;;;;2.60;1.15;;;;;;;19.61;40.10;99782.83;3441615;80;20923;-79
2022/05/28 09:33:33;;;;;;;4.53;1.50;;;;;;;17.82;40.45;99784.85;3522148;80;21933;-80
2022/05/28 09:38:34;;;;;;;2.87;1.25;;;;;;;17.47;40.50;99780.08;3456446;80;21019;-81
2022/05/28 09:43:48;;;;;;;2.75;1.02;;;;;;;20.05;39.32;99776.88;3482728;80;21445;-82
2022/05/28 09:48:39;;;;;;;3.10;1.25;;;;;;;23.79;35.81;99764.23;3483869;80;20966;-82
2022/05/28 09:58:48;;;;;;;3.70;1.10;;;;;;;20.98;37.52;99784.75;3436871;80;21129;-82
2022/05/28 10:08:55;;;;;;;3.15;1.40;;;;;;;23.33;35.88;99759.98;3484706;80;21002;-79
2022/05/28 10:13:51;;;;;;;1.62;1.10;;;;;;;25.48;34.72;99753.91;3504761;80;20924;-79
2022/05/28 10:18:54;;;;;;;3.62;1.40;;;;;;;24.31;33.79;99754.80;3485909;80;20979;-78
2022/05/28 10:23:55;;;;;;;3.08;1.62;;;;;;;20.81;35.74;99773.56;3509997;80;21291;-78
2022/05/28 10:28:53;;;;;;;2.35;0.82;;;;;;;17.58;42.16;99849.44;3511869;80;20929;-79
2022/05/28 10:33:46;;;;;;;3.05;1.30;;;;;;;14.65;47.30;99878.19;3468771;81;20904;-80
2022/05/28 10:38:37;;;;;;;2.22;0.98;;;;;;;13.39;50.23;99880.77;3483195;80;20999;-80
2022/05/28 10:43:40;;;;;;;1.25;0.80;;;;;;;13.08;51.92;99869.66;3463285;79;21054;-79
2022/05/28 10:48:42;;;;;;;1.75;1.00;;;;;;;15.10;51.29;99850.07;3457245;80;21002;-78
2022/05/28 10:53:50;;;;;;;2.40;1.55;;;;;;;17.64;51.40;99853.25;3397860;82;21019;-79
2022/05/28 10:59:18;;;;;;;2.05;1.17;;;;;;;18.93;48.45;99837.77;3392752;81;21401;-80
2022/05/28 11:04:23;;;;;;;1.98;1.00;;;;;;;19.52;47.39;99833.23;3401494;82;20938;-80
2022/05/28 11:09:39;;;;;;;1.55;1.15;;;;;;;18.72;49.03;99822.61;3415202;82;21026;-79
2022/05/28 11:14:51;;;;;;;2.25;1.20;;;;;;;17.24;49.31;99837.15;3403962;82;21545;-80
2022/05/28 11:20:19;;;;;;;3.15;1.00;;;;;;;16.08;50.25;99836.16;3415542;81;21101;-80
2022/05/28 11:25:32;;;;;;;1.95;1.25;;;;;;;15.02;49.78;99865.02;3393725;82;20948;-79
2022/05/28 11:30:35;;;;;;;1.57;0.85;;;;;;;14.26;50.42;99858.14;3478552;80;20921;-80
2022/05/28 11:36:02;;;;;;;2.50;1.10;;;;;;;13.94;51.61;99872.88;3482723;80;21019;-79
2022/05/28 11:41:27;;;;;;;2.22;0.93;;;;;;;13.64;52.57;99887.95;3495207;79;21133;-79
2022/05/28 11:46:30;;;;;;;1.17;0.75;;;;;;;13.55;52.59;99876.28;3458998;82;20988;-78
2022/05/28 11:51:29;;;;;;;1.82;0.90;;;;;;;14.76;52.55;99854.48;3399157;81;20935;-79
2022/05/28 11:56:28;;;;;;;0.62;0.62;;;;;;;15.25;50.44;99843.72;3394636;82;21189;-80
2022/05/28 12:01:24;;;;;;;2.45;1.00;;;;;;;14.72;50.60;99834.91;3392176;82;20971;-79
2022/05/28 12:06:34;;;;;;;1.15;0.50;;;;;;;14.80;50.36;99826.08;3387599;82;21228;-80
2022/05/28 12:11:43;;;;;;;0.60;0.50;;;;;;;15.96;50.85;99812.38;3416357;82;21090;-80
2022/05/28 12:16:41;;;;;;;0.72;0.62;;;;;;;16.44;48.95;99802.23;3431159;81;20908;-79
2022/05/28 12:21:36;;;;;;;0.53;0.53;;;;;;;16.90;47.89;99795.94;3492464;80;20936;-80
2022/05/28 12:31:42;;;;;;;0.80;0.60;;;;;;;17.06;46.58;99807.83;3498049;80;21458;-80
2022/05/28 12:36:43;;;;;;;1.82;1.45;;;;;;;16.78;46.34;99806.27;3466033;80;21619;-80
2022/05/28 12:41:38;;;;;;;2.17;1.00;;;;;;;16.58;46.91;99821.16;3485128;80;20936;-80
2022/05/28 12:46:59;;;;;;;1.22;0.70;;;;;;;15.94;46.22;99808.47;3485309;80;20974;-80
2022/05/28 12:52:28;;;;;;;1.12;0.95;;;;;;;15.03;46.63;99820.49;3504237;80;21035;-79
2022/05/28 12:57:35;;;;;;;2.25;1.35;;;;;;;14.56;47.96;99822.45;3453393;80;21538;-79
2022/05/28 13:02:40;;;;;;;1.85;1.05;;;;;;;14.17;49.34;99828.64;3445240;80;26612;-79
2022/05/28 13:07:39;;;;;;;1.77;1.25;;;;;;;13.82;50.29;99848.17;3508913;80;20991;-79
2022/05/28 13:12:47;;;;;;;3.50;1.12;;;;;;;13.49;50.75;99873.73;3487512;80;20924;-79
2022/05/28 13:17:50;;;;;;;1.12;1.02;;;;;;;13.16;53.01;99880.90;3525766;79;21458;-79
2022/05/28 13:23:09;;;;;;;0.88;0.88;;;;;;;12.89;54.96;99859.33;3488376;80;21026;-79
2022/05/28 13:28:15;;;;;;;1.52;0.70;;;;;;;12.89;54.83;99853.25;3484432;80;21529;-80
2022/05/28 13:33:11;;;;;;;0.85;0.80;;;;;;;13.31;55.26;99867.78;3498333;80;21003;-80
2022/05/28 13:38:04;;;;;;;0.70;0.70;;;;;;;13.86;55.17;99855.09;3488683;80;21030;-80
2022/05/28 13:43:00;;;;;;;1.45;0.80;;;;;;;14.39;54.49;99861.47;3541312;79;21418;-78
2022/05/28 13:47:53;;;;;;;0.70;0.60;;;;;;;15.08;54.08;99860.12;3477503;80;21834;-80
2022/05/28 13:52:45;;;;;;;0.78;0.78;;;;;;;15.45;53.20;99869.58;3482275;80;20909;-79
2022/05/28 13:57:44;;;;;;;0.70;0.53;;;;;;;15.07;53.37;99878.91;3490065;80;20925;-80
2022/05/28 14:02:37;;;;;;;0.90;0.68;;;;;;;15.67;52.56;99872.72;3446505;80;20916;-80
2022/05/28 14:07:32;;;;;;;0.70;0.65;;;;;;;15.62;53.08;99867.55;3422701;79;20992;-79
2022/05/28 14:12:34;;;;;;;0.50;0.50;;;;;;;15.10;53.11;99871.02;3458490;80;21013;-79
2022/05/28 14:17:33;;;;;;;0.78;0.78;;;;;;;14.58;53.62;99879.14;3472465;79;21495;-79
2022/05/28 14:22:35;;;;;;;1.05;0.72;;;;;;;14.03;53.85;99896.30;3439005;79;20953;-79
2022/05/28 14:27:29;;;;;;;1.60;0.98;;;;;;;13.66;54.92;99891.41;3492901;79;20960;-79
2022/05/28 14:32:34;;;;;;;0.98;0.90;;;;;;;13.57;55.32;99869.75;3466791;80;20967;-78
2022/05/28 14:37:32;;;;;;;2.12;0.90;;;;;;;13.75;55.59;99857.81;3499182;80;21353;-79
2022/05/28 14:42:31;;;;;;;0.90;0.90;;;;;;;13.90;55.49;99848.97;3459180;80;20952;-79
2022/05/28 14:47:30;;;;;;;1.05;1.00;;;;;;;14.23;55.43;99853.39;3466972;80;21469;-78
2022/05/28 14:52:27;;;;;;;1.30;0.95;;;;;;;14.29;55.07;99855.50;3502860;80;21003;-79
2022/05/28 14:57:26;;;;;;;1.57;1.20;;;;;;;14.04;54.82;99867.98;3480978;80;20927;-78
2022/05/28 15:02:28;;;;;;;1.95;1.30;;;;;;;13.85;54.82;99861.22;3460179;80;21779;-79
2022/05/28 15:07:27;;;;;;;3.35;1.22;;;;;;;13.69;55.50;99858.74;3460433;80;20971;-78
2022/05/28 15:12:26;;;;;;;2.22;1.32;;;;;;;13.54;56.13;99858.90;3479789;80;21252;-79
2022/05/28 15:17:17;;;;;;;1.70;1.50;;;;;;;13.33;56.65;99866.02;3454115;80;20952;-79
2022/05/28 15:22:17;;;;;;;1.67;1.27;;;;;;;13.14;57.98;99874.83;3466551;80;21026;-79
2022/05/28 15:27:10;;;;;;;2.77;1.85;;;;;;;12.83;58.27;99882.00;3494747;80;21523;-80
2022/05/28 15:32:02;;;;;;;2.08;1.50;;;;;;;12.47;59.13;99879.55;3432714;80;20971;-80
2022/05/28 15:42:03;;;;;;;4.22;1.90;;;;;;;12.00;61.27;99863.20;3496236;80;20916;-79
2022/05/28 15:46:54;;;;;;;3.87;1.80;;;;;;;11.99;62.02;99856.70;3480584;80;20967;-79
2022/05/28 15:51:46;;;;;;;3.25;1.77;;;;;;;11.99;62.46;99852.78;3413147;80;20971;-79
2022/05/28 15:56:41;;;;;;;2.98;2.62;;;;;;;12.08;62.76;99847.98;3447500;80;21712;-80
2022/05/28 16:01:36;;;;;;;3.75;2.40;;;;;;;12.09;63.14;99849.30;3479733;80;21712;-79
2022/05/28 16:06:32;;;;;;;6.33;2.58;;;;;;;12.09;63.44;99854.91;3472432;80;20980;-79
2022/05/28 16:11:27;;;;;;;3.83;2.45;;;;;;;12.06;63.96;99864.92;3476552;80;20994;-79
2022/05/28 16:16:20;;;;;;;4.53;1.77;;;;;;;11.99;63.82;99864.51;3450119;80;21898;-79
2022/05/28 16:21:13;;;;;;;4.45;2.17;;;;;;;11.99;64.37;99869.72;3454872;80;21276;-79
2022/05/28 16:26:08;;;;;;;3.80;2.30;;;;;;;12.01;64.45;99870.58;3459792;80;20982;-79
2022/05/28 16:31:00;;;;;;;3.02;2.72;;;;;;;11.98;64.57;99877.09;3461094;80;20991;-79
2022/05/28 16:35:52;;;;;;;3.25;2.42;;;;;;;11.92;64.80;99877.12;3437404;80;20983;-79
2022/05/28 16:40:43;;;;;;;3.77;2.75;;;;;;;11.78;64.95;99884.47;3437485;80;22583;-80
2022/05/28 16:45:35;;;;;;;2.98;2.67;;;;;;;11.68;65.37;99897.09;3516989;80;20947;-80
2022/05/28 16:50:27;;;;;;;4.00;2.95;;;;;;;11.74;65.92;99897.52;3460041;80;21566;-79
2022/05/28 16:55:18;;;;;;;3.47;2.60;;;;;;;11.86;65.63;99883.59;3450572;80;20971;-79
2022/05/28 17:00:11;;;;;;;3.02;2.00;;;;;;;11.71;65.68;99897.06;3456332;80;20920;-79
2022/05/28 17:05:08;;;;;;;4.03;1.90;;;;;;;11.50;66.27;99899.67;3449435;80;21430;-78
2022/05/28 17:09:59;;;;;;;2.20;1.70;;;;;;;11.36;66.29;99907.05;3454968;80;21431;-78
2022/05/28 17:14:50;;;;;;;1.27;1.17;;;;;;;11.25;66.00;99910.09;3457169;80;21017;-79
2022/05/28 17:19:41;;;;;;;1.15;0.90;;;;;;;11.16;65.90;99903.55;3441886;80;21580;-78
2022/05/28 17:24:32;;;;;;;0.93;0.70;;;;;;;11.14;65.75;99903.98;3452336;79;20992;-78
2022/05/28 17:29:23;;;;;;;0.90;0.70;;;;;;;11.04;65.66;99906.57;3461840;80;20999;-78
2022/05/28 17:34:15;;;;;;;1.00;0.85;;;;;;;10.92;65.30;99911.74;3393533;80;21023;-79
2022/05/28 17:39:07;;;;;;;1.80;1.20;;;;;;;10.83;65.51;99911.72;3476162;80;21003;-79
2022/05/28 17:43:59;;;;;;;0.93;0.93;;;;;;;10.76;66.21;99916.46;3483779;80;21549;-79
2022/05/28 17:48:50;;;;;;;1.25;0.88;;;;;;;10.63;67.03;99920.31;3447942;80;20956;-78
2022/05/28 17:53:41;;;;;;;1.25;0.80;;;;;;;10.53;67.51;99931.53;3470665;80;21751;-79
2022/05/28 17:58:32;;;;;;;1.13;1.07;;;;;;;10.21;69.02;99927.02;3446787;80;20907;-80
2022/05/28 18:03:30;;;;;;;2.80;1.35;;;;;;;10.21;69.02;99927.02;3417604;80;21459;-79
2022/05/28 18:08:23;;;;;;;1.85;1.32;;;;;;;10.20;69.18;99932.20;3493495;80;20943;-80
2022/05/28 18:13:14;;;;;;;3.25;1.70;;;;;;;10.20;69.70;99934.80;3418856;80;21486;-79
2022/05/28 18:18:08;;;;;;;3.67;1.60;;;;;;;10.19;69.82;99932.61;3498170;80;21643;-79
2022/05/28 18:23:02;;;;;;;1.70;1.60;;;;;;;10.21;70.36;99948.22;3465382;79;21610;-80
2022/05/28 18:27:54;;;;;;;3.30;2.17;;;;;;;10.19;71.69;99935.65;3457482;80;21443;-80
2022/05/28 18:32:45;;;;;;;3.85;2.62;;;;;;;10.16;70.91;99954.70;3445178;80;21178;-79
2022/05/28 18:37:43;;;;;;;3.17;2.87;;;;;;;10.09;71.08;99952.48;3432591;80;21106;-79
2022/05/28 18:42:34;;;;;;;5.72;2.35;;;;;;;10.06;71.49;99953.75;3487969;80;21200;-79
2022/05/28 18:47:26;;;;;;;3.27;2.33;;;;;;;10.06;71.66;99955.48;3379440;82;20944;-78
2022/05/28 18:52:22;;;;;;;8.30;2.85;;;;;;;10.05;72.04;99958.93;3426370;80;20987;-79
2022/05/28 18:57:14;;;;;;;6.10;4.80;;;;;;;10.05;72.04;99958.93;3505398;80;21490;-78
2022/05/28 19:02:09;;;;;;;5.55;3.25;;;;;;;10.04;72.64;99957.20;3419919;81;20931;-79
2022/05/28 19:07:06;;;;;;;3.83;2.72;;;;;;;10.03;72.39;99956.75;3473160;80;21157;-78
2022/05/28 19:11:59;;;;;;;;;;;;;;;10.05;72.69;99960.23;3468919;80;22292;-78
2022/05/28 19:16:55;;;;;;;7.62;4.10;;;;;;;10.03;72.80;99964.14;3512494;79;20151;-79
2022/05/28 19:21:49;;;;;;;4.25;3.62;;;;;;;9.95;73.06;99970.13;3440482;80;21010;-78
2022/05/28 19:31:54;;;;;;;7.03;3.02;;;;;;;9.89;73.28;99969.22;3457621;80;21458;-79
2022/05/28 19:36:45;;;;;;;6.28;4.28;;;;;;;9.89;73.28;99969.22;3499333;80;20888;-79
2022/05/28 19:41:37;;;;;;;6.03;3.40;;;;;;;9.88;73.48;99962.28;3478058;80;21014;-79
2022/05/28 19:46:32;;;;;;;6.67;3.60;;;;;;;9.82;73.43;99962.24;3465658;80;22113;-78
2022/05/28 19:51:24;;;;;;;3.20;2.90;;;;;;;9.82;73.43;99962.24;3447232;80;20977;-79
2022/05/28 19:56:16;;;;;;;3.42;2.87;;;;;;;9.76;73.76;99964.77;3456052;80;21031;-79
2022/05/28 20:01:07;;;;;;;7.95;3.35;;;;;;;9.71;73.93;99974.24;3443724;80;21022;-78
2022/05/28 20:05:58;;;;;;;4.50;2.50;;;;;;;9.70;74.04;99973.82;3418246;80;20975;-78
2022/05/28 20:10:49;;;;;;;4.05;2.83;;;;;;;9.67;74.33;99973.78;3478049;80;20994;-79
2022/05/28 20:15:40;;;;;;;5.67;3.27;;;;;;;9.71;74.50;99974.24;3476387;80;20936;-78
2022/05/28 20:20:32;;;;;;;4.67;3.63;;;;;;;9.71;74.50;99974.24;3518539;79;20899;-78
2022/05/28 20:25:23;;;;;;;10.68;7.95;;;;;;;9.76;74.59;99976.45;3400327;82;21782;-78
2022/05/28 20:30:16;;;;;;;5.40;3.80;;;;;;;9.78;74.50;99976.03;3431334;79;20976;-78
2022/05/28 20:35:12;;;;;;;4.22;3.00;;;;;;;9.74;74.70;99974.28;3461887;80;20881;-78
2022/05/28 20:40:06;;;;;;;5.30;2.83;;;;;;;9.70;74.74;99979.02;3506756;80;21018;-79
2022/05/28 20:44:57;;;;;;;4.87;3.37;;;;;;;9.66;74.75;99978.12;3428386;81;21042;-79
2022/05/28 20:49:48;;;;;;;4.92;2.92;;;;;;;9.63;74.83;99986.30;3467004;80;21007;-78
2022/05/28 20:54:39;;;;;;;5.20;3.22;;;;;;;9.63;74.95;99977.22;3461846;80;21014;-78
2022/05/28 20:59:31;;;;;;;4.62;2.65;;;;;;;9.68;75.08;99978.13;3439479;80;21414;-79
2022/05/28 21:04:25;;;;;;;4.15;2.72;;;;;;;9.70;75.18;99978.58;3511192;80;20960;-79
2022/05/28 21:09:18;;;;;;;5.22;3.08;;;;;;;9.72;75.17;99980.75;3469183;80;21038;-79
2022/05/28 21:14:10;;;;;;;6.85;2.98;;;;;;;9.74;75.28;99979.47;3455135;80;21000;-79
2022/05/28 21:19:04;;;;;;;2.98;2.58;;;;;;;9.76;75.17;99975.16;3465300;80;21640;-79
2022/05/28 21:23:56;;;;;;;5.05;2.87;;;;;;;9.80;75.40;99975.64;3480770;79;20901;-78
2022/05/28 21:33:56;;;;;;;8.73;5.20;;;;;;;9.86;75.51;99976.98;3458650;80;22446;-79
2022/05/28 21:38:47;;;;;;;5.85;3.98;;;;;;;9.86;75.51;99976.98;3483979;79;21490;-79
2022/05/28 21:43:38;;;;;;;3.08;2.72;;;;;;;9.86;75.50;99975.68;3478704;80;20993;-79
2022/05/28 21:48:32;;;;;;;4.37;2.55;;;;;;;9.88;75.43;99976.56;3440404;80;20972;-79
2022/05/28 21:53:26;;;;;;;4.95;2.92;;;;;;;9.89;75.75;99973.12;3485537;80;21027;-79
2022/05/28 21:58:18;;;;;;;4.53;3.08;;;;;;;9.93;75.57;99975.31;3455269;80;21169;-79
2022/05/28 22:03:09;;;;;;;11.80;3.40;;;;;;;9.93;75.57;99975.31;3443781;80;21078;-79
2022/05/28 22:08:00;;;;;;;5.03;3.20;;;;;;;9.97;75.92;99977.50;3456184;80;20889;-80
2022/05/28 22:12:51;;;;;;;7.42;3.98;;;;;;;9.99;75.87;99986.17;3470163;80;21564;-79
2022/05/28 22:17:42;;;;;;;4.70;2.47;;;;;;;9.98;75.83;99984.02;3484340;80;21478;-80
2022/05/28 22:22:33;;;;;;;9.23;3.70;;;;;;;9.91;75.63;99977.03;3463599;80;21093;-80
2022/05/28 22:27:24;;;;;;;4.12;3.17;;;;;;;9.95;76.12;99976.63;3432490;80;21071;-79
2022/05/28 22:32:15;;;;;;;7.37;2.80;;;;;;;9.95;76.12;99976.63;3455110;80;21030;-79
2022/05/28 22:37:07;;;;;;;3.45;2.52;;;;;;;10.01;76.03;99988.34;3479100;80;21007;-79
2022/05/28 22:41:58;;;;;;;7.60;3.52;;;;;;;10.00;76.12;99973.64;3473660;80;20983;-79
2022/05/28 22:46:50;;;;;;;5.35;3.00;;;;;;;9.96;75.99;99977.05;3472407;80;20900;-80
2022/05/28 22:51:41;;;;;;;6.65;3.35;;;;;;;9.87;76.33;99962.27;3470126;80;20960;-80
2022/05/28 22:56:31;;;;;;;4.92;3.75;;;;;;;9.87;76.33;99962.27;3502488;80;20948;-80
2022/05/28 23:01:25;;;;;;;6.10;3.40;;;;;;;9.89;76.04;99970.52;3469897;80;20964;-80
2022/05/28 23:06:19;;;;;;;4.42;2.62;;;;;;;9.86;76.16;99969.19;3470346;80;22503;-80
2022/05/28 23:11:10;;;;;;;4.55;3.12;;;;;;;9.81;75.98;99968.72;3453379;80;21777;-80
2022/05/28 23:16:01;;;;;;;5.65;3.30;;;;;;;9.85;76.23;99972.63;3455299;80;20959;-80
2022/05/28 23:20:59;;;;;;;5.60;3.25;;;;;;;9.83;76.03;99975.65;3492013;80;21477;-80
2022/05/28 23:25:55;;;;;;;6.10;3.67;;;;;;;9.79;76.23;99970.00;3495105;80;20943;-80
2022/05/28 23:30:49;;;;;;;5.30;3.90;;;;;;;9.83;76.17;99983.88;3464277;80;21058;-80
2022/05/28 23:35:40;;;;;;;5.83;3.50;;;;;;;9.80;76.16;99976.94;3445788;80;21508;-80
2022/05/28 23:40:31;;;;;;;4.67;3.37;;;;;;;9.73;76.04;99982.94;3475044;80;20960;-80
2022/05/28 23:45:22;;;;;;;5.33;3.30;;;;;;;9.76;76.21;99989.44;3508787;80;21624;-80
2022/05/28 23:50:14;;;;;;;4.25;3.58;;;;;;;9.76;76.24;99984.24;3442660;80;21021;-80